Time;durP1;ratioP1;P1;durP2;ratioP2;P2;SDS_P1;SDS_P2;PMS_P1;PMS_P2;Temp;Humidity;BMP_temperature;BMP_pressure;BME280_temperature;BME280_humidity;BME280_pressure;Samples;Min_cycle;Max_cycle;Signal;HPM_P1;HPM_P2
2022/04/09 00:01:14;;;;;;;8.07;1.70;;;5.50;99.90;;;;;;6257450;22;20023;-73
2022/04/09 00:03:40;;;;;;;6.78;1.23;;;5.40;99.90;;;;;;6307763;22;20030;-74
2022/04/09 00:06:06;;;;;;;13.98;1.95;;;5.50;99.90;;;;;;6334785;22;20778;-75
2022/04/09 00:08:32;;;;;;;6.72;1.30;;;5.50;99.90;;;;;;6281812;22;20031;-75
2022/04/09 00:11:18;;;;;;;9.38;1.35;;;5.60;99.90;;;;;;6338890;22;20026;-75
2022/04/09 00:13:44;;;;;;;17.85;1.85;;;5.60;99.90;;;;;;6282839;22;20029;-75
2022/04/09 00:16:11;;;;;;;11.30;1.85;;;5.60;99.90;;;;;;6360474;22;20015;-75
2022/04/09 00:18:43;;;;;;;10.40;1.60;;;5.60;99.90;;;;;;6308976;22;20030;-76
2022/04/09 00:21:09;;;;;;;12.60;1.70;;;5.60;99.90;;;;;;6309281;22;20010;-75
2022/04/09 00:23:35;;;;;;;7.82;1.45;;;5.60;99.90;;;;;;6283718;22;20050;-75
2022/04/09 00:26:01;;;;;;;8.63;1.83;;;5.70;99.90;;;;;;6283988;22;20023;-76
2022/04/09 00:28:29;;;;;;;7.80;1.40;;;5.60;99.90;;;;;;6284108;22;20034;-75
2022/04/09 00:30:54;;;;;;;15.57;2.55;;;5.60;99.90;;;;;;6309793;22;20046;-76
2022/04/09 00:33:20;;;;;;;6.53;1.02;;;5.60;99.90;;;;;;6310004;22;20025;-75
2022/04/09 00:36:02;;;;;;;11.98;1.52;;;5.60;99.90;;;;;;6249933;22;20115;-74
2022/04/09 00:38:32;;;;;;;11.73;1.75;;;5.50;99.90;;;;;;6246367;22;20016;-75
2022/04/09 00:41:22;;;;;;;15.75;1.77;;;5.50;99.90;;;;;;6225582;22;20016;-75
2022/04/09 00:43:50;;;;;;;12.35;1.63;;;5.50;99.90;;;;;;6221257;22;20029;-74
2022/04/09 00:46:16;;;;;;;6.75;1.33;;;5.50;99.90;;;;;;6271912;22;20019;-74
2022/04/09 00:48:43;;;;;;;6.53;1.55;;;5.60;99.90;;;;;;6246623;22;20027;-74
2022/04/09 00:51:09;;;;;;;6.57;2.30;;;5.60;99.90;;;;;;6245961;22;20020;-76
2022/04/09 00:53:39;;;;;;;11.10;2.00;;;5.60;99.90;;;;;;6221133;22;20027;-74
2022/04/09 00:56:20;;;;;;;11.48;2.03;;;5.60;99.90;;;;;;6246685;22;20112;-73
2022/04/09 00:58:56;;;;;;;12.20;1.52;;;5.60;99.90;;;;;;6246348;22;20023;-76
2022/04/09 01:01:31;;;;;;;14.40;2.42;;;5.70;99.90;;;;;;6246478;22;20062;-75
2022/04/09 01:04:11;;;;;;;9.55;1.63;;;5.70;99.90;;;;;;6222061;22;20055;-75
2022/04/09 01:06:45;;;;;;;14.00;2.13;;;5.60;99.90;;;;;;6247832;22;20023;-74
2022/04/09 01:09:12;;;;;;;6.55;1.30;;;5.60;99.90;;;;;;6221503;22;20521;-76
2022/04/09 01:11:41;;;;;;;6.82;1.10;;;5.60;99.90;;;;;;6246505;22;20062;-75
2022/04/09 01:14:29;;;;;;;7.95;1.50;;;5.60;99.90;;;;;;6245148;22;20062;-75
2022/04/09 01:16:55;;;;;;;11.48;2.15;;;5.50;99.90;;;;;;6221223;22;20077;-75
2022/04/09 01:19:21;;;;;;;13.52;2.17;;;5.50;99.90;;;;;;6245405;22;20090;-75
2022/04/09 01:21:48;;;;;;;7.53;1.98;;;5.60;99.90;;;;;;6271860;22;20108;-75
2022/04/09 01:24:14;;;;;;;8.73;1.67;;;5.60;99.90;;;;;;6297858;22;20024;-75
2022/04/09 01:26:40;;;;;;;8.60;1.88;;;5.60;99.90;;;;;;6297890;22;20042;-74
2022/04/09 01:29:06;;;;;;;14.10;2.65;;;5.60;99.90;;;;;;6296108;22;20042;-75
2022/04/09 01:31:33;;;;;;;9.10;1.52;;;5.60;99.90;;;;;;6266202;22;20022;-75
2022/04/09 01:33:59;;;;;;;20.30;2.00;;;5.60;99.90;;;;;;6308559;22;20416;-75
2022/04/09 01:36:25;;;;;;;10.13;1.60;;;5.50;99.90;;;;;;6309203;22;20051;-75
2022/04/09 01:38:51;;;;;;;20.08;2.28;;;5.50;99.90;;;;;;6337009;22;20114;-75
2022/04/09 01:41:19;;;;;;;11.32;1.88;;;5.40;99.90;;;;;;6309327;22;20022;-75
2022/04/09 01:43:44;;;;;;;9.27;1.75;;;5.40;99.90;;;;;;6310458;22;20034;-76
2022/04/09 01:46:13;;;;;;;9.90;2.10;;;5.40;99.90;;;;;;6310937;22;20019;-74
2022/04/09 01:48:41;;;;;;;7.82;1.58;;;5.40;99.90;;;;;;6309125;22;20027;-75
2022/04/09 01:51:06;;;;;;;11.43;2.22;;;5.40;99.90;;;;;;6335722;22;20022;-75
2022/04/09 01:53:34;;;;;;;11.40;1.98;;;5.40;99.90;;;;;;6307822;22;20025;-77
2022/04/09 01:56:00;;;;;;;18.13;5.82;;;5.40;99.90;;;;;;6309113;22;20527;-75
2022/04/09 01:58:26;;;;;;;12.55;2.20;;;5.40;99.90;;;;;;6309182;22;20031;-77
2022/04/09 02:00:58;;;;;;;12.68;2.40;;;5.40;99.90;;;;;;6336859;22;20114;-74
2022/04/09 02:03:25;;;;;;;14.45;2.55;;;5.20;99.90;;;;;;6336653;22;20080;-73
2022/04/09 02:05:51;;;;;;;9.45;2.30;;;5.00;99.90;;;;;;6336977;22;20106;-73
2022/04/09 02:08:17;;;;;;;13.00;1.70;;;4.90;99.90;;;;;;6337890;22;20058;-73
2022/04/09 02:10:44;;;;;;;15.73;2.30;;;4.90;99.90;;;;;;6337704;22;20021;-74
2022/04/09 02:13:19;;;;;;;16.65;2.65;;;4.80;99.90;;;;;;6336342;22;20023;-73
2022/04/09 02:15:48;;;;;;;13.93;4.00;;;4.70;99.90;;;;;;6282837;22;20503;-73
2022/04/09 02:18:36;;;;;;;8.65;2.50;;;4.70;99.90;;;;;;6334570;22;20470;-74
2022/04/09 02:21:06;;;;;;;15.48;2.38;;;4.70;99.90;;;;;;6308805;22;20014;-75
2022/04/09 02:23:36;;;;;;;18.42;2.33;;;4.70;99.90;;;;;;6308663;22;20030;-75
2022/04/09 02:26:08;;;;;;;10.23;1.45;;;4.80;99.90;;;;;;6333156;22;20396;-74
2022/04/09 02:28:35;;;;;;;20.33;4.10;;;4.80;99.90;;;;;;6308527;22;20023;-75
2022/04/09 02:31:11;;;;;;;15.55;2.20;;;4.90;99.90;;;;;;6336523;22;20527;-75
2022/04/09 02:33:37;;;;;;;10.93;1.90;;;5.00;99.90;;;;;;6335673;22;20354;-74
2022/04/09 02:36:12;;;;;;;7.45;1.63;;;5.10;99.90;;;;;;6308553;22;20018;-74
2022/04/09 02:38:38;;;;;;;7.93;1.92;;;5.10;99.90;;;;;;6283640;22;20171;-75
2022/04/09 02:41:04;;;;;;;11.10;1.80;;;5.20;99.90;;;;;;6308831;22;20407;-74
2022/04/09 02:43:30;;;;;;;15.43;2.00;;;5.10;99.90;;;;;;6336712;22;20075;-76
2022/04/09 02:45:57;;;;;;;14.48;1.88;;;5.20;99.90;;;;;;6283348;22;20035;-75
2022/04/09 02:48:28;;;;;;;14.23;2.30;;;5.30;99.90;;;;;;6308769;22;20127;-75
2022/04/09 02:50:57;;;;;;;10.32;1.80;;;5.30;99.90;;;;;;6283986;22;20492;-75
2022/04/09 02:53:32;;;;;;;13.73;1.90;;;5.30;99.90;;;;;;6309223;22;20553;-74
2022/04/09 02:56:20;;;;;;;11.85;2.10;;;5.30;99.90;;;;;;6282811;22;20050;-75
2022/04/09 02:58:46;;;;;;;9.23;2.47;;;5.40;99.90;;;;;;6240695;22;20458;-75
2022/04/09 03:01:12;;;;;;;17.38;3.35;;;5.40;99.90;;;;;;6190266;23;20111;-75
2022/04/09 03:03:38;;;;;;;9.48;1.30;;;5.40;99.90;;;;;;6215303;23;20107;-75
2022/04/09 03:06:04;;;;;;;6.95;1.73;;;5.40;99.90;;;;;;6241896;23;20070;-75
2022/04/09 03:08:30;;;;;;;14.70;1.77;;;5.40;99.90;;;;;;6215641;23;20028;-76
2022/04/09 03:10:57;;;;;;;9.93;1.42;;;5.40;99.90;;;;;;6266712;22;20238;-75
2022/04/09 03:13:22;;;;;;;19.02;3.88;;;5.50;99.90;;;;;;6240828;23;20055;-75
2022/04/09 03:15:51;;;;;;;8.63;1.50;;;5.50;99.90;;;;;;6214455;23;20024;-76
2022/04/09 03:18:21;;;;;;;12.45;2.10;;;5.50;99.90;;;;;;6191023;23;20490;-74
2022/04/09 03:20:51;;;;;;;16.05;2.60;;;5.50;99.90;;;;;;6215282;23;20035;-75
2022/04/09 03:23:17;;;;;;;15.38;1.65;;;5.50;99.90;;;;;;6215646;23;20545;-76
2022/04/09 03:25:44;;;;;;;14.57;1.77;;;5.50;99.90;;;;;;6215074;23;20024;-75
2022/04/09 03:28:12;;;;;;;15.07;2.28;;;5.50;99.90;;;;;;6191473;23;20047;-76
2022/04/09 03:30:38;;;;;;;11.25;1.75;;;5.50;99.90;;;;;;6265916;22;20024;-75
2022/04/09 03:33:14;;;;;;;15.65;2.22;;;5.60;99.90;;;;;;6265984;22;20020;-77
2022/04/09 03:35:57;;;;;;;13.02;2.30;;;5.50;99.90;;;;;;6128625;23;20477;-75
2022/04/09 03:38:25;;;;;;;21.10;2.80;;;5.50;99.90;;;;;;6150030;23;20103;-75
2022/04/09 03:40:54;;;;;;;13.00;2.17;;;5.60;99.90;;;;;;6150225;23;20398;-75
2022/04/09 03:43:31;;;;;;;19.65;2.83;;;5.60;99.90;;;;;;6228535;23;20027;-74
2022/04/09 03:45:56;;;;;;;17.35;2.42;;;5.40;99.90;;;;;;6238956;23;20020;-74
2022/04/09 03:48:23;;;;;;;6.32;0.88;;;5.30;99.90;;;;;;6214767;23;20066;-74
2022/04/09 03:50:49;;;;;;;9.20;1.17;;;5.20;99.90;;;;;;6189853;23;20020;-74
2022/04/09 03:53:19;;;;;;;10.88;1.50;;;5.20;99.90;;;;;;6240183;23;20024;-74
2022/04/09 03:55:47;;;;;;;10.02;1.30;;;5.10;99.90;;;;;;6216161;23;20028;-74
2022/04/09 03:58:15;;;;;;;5.80;0.95;;;5.10;99.90;;;;;;6216700;23;20904;-76
2022/04/09 04:01:01;;;;;;;9.45;3.58;;;5.10;99.90;;;;;;6242196;23;20035;-76
2022/04/09 04:03:35;;;;;;;8.07;1.05;;;5.10;99.90;;;;;;6241898;23;20020;-76
2022/04/09 04:06:02;;;;;;;6.68;1.20;;;5.10;99.90;;;;;;6216559;23;20039;-76
2022/04/09 04:08:29;;;;;;;13.35;1.40;;;5.10;99.90;;;;;;6191524;23;20035;-76
2022/04/09 04:11:02;;;;;;;12.38;1.35;;;5.10;99.90;;;;;;6217003;23;20388;-75
2022/04/09 04:13:38;;;;;;;11.02;2.83;;;5.10;99.90;;;;;;6245159;22;20472;-75
2022/04/09 04:16:09;;;;;;;9.40;1.70;;;5.10;99.90;;;;;;6310755;22;20470;-75
2022/04/09 04:18:36;;;;;;;8.98;1.42;;;5.10;99.90;;;;;;6258386;22;20455;-77
2022/04/09 04:21:03;;;;;;;7.45;1.23;;;5.20;99.90;;;;;;6336588;22;20557;-76
2022/04/09 04:23:35;;;;;;;14.40;1.92;;;5.20;99.90;;;;;;6336820;22;20400;-76
2022/04/09 04:26:02;;;;;;;18.52;2.33;;;5.30;99.90;;;;;;6284317;22;20018;-76
2022/04/09 04:28:28;;;;;;;9.63;1.73;;;5.30;99.90;;;;;;6285501;22;20023;-75
2022/04/09 04:30:54;;;;;;;15.77;1.92;;;5.40;99.90;;;;;;6338534;22;20037;-76
2022/04/09 04:33:20;;;;;;;10.55;1.63;;;5.40;99.90;;;;;;6310254;22;20076;-75
2022/04/09 04:35:46;;;;;;;8.50;1.60;;;5.40;99.90;;;;;;6309720;22;20053;-78
2022/04/09 04:38:12;;;;;;;8.23;1.50;;;5.40;99.90;;;;;;6284122;22;20558;-74
2022/04/09 04:40:39;;;;;;;11.32;1.77;;;5.40;99.90;;;;;;6309938;22;20399;-75
2022/04/09 04:43:06;;;;;;;28.00;4.03;;;5.40;99.90;;;;;;6309613;22;20026;-76
2022/04/09 04:45:32;;;;;;;16.30;2.78;;;5.40;99.90;;;;;;6283872;22;20041;-78
2022/04/09 04:47:59;;;;;;;12.52;2.20;;;5.40;99.90;;;;;;6309526;22;20019;-76
2022/04/09 04:50:30;;;;;;;12.90;2.22;;;5.50;99.90;;;;;;6309708;22;20018;-76
2022/04/09 04:52:56;;;;;;;16.75;2.15;;;5.40;99.90;;;;;;6284382;22;20097;-76
2022/04/09 04:55:22;;;;;;;11.75;1.38;;;5.50;99.90;;;;;;6309788;22;20025;-75
2022/04/09 04:57:57;;;;;;;;;;;5.50;99.90;;;;;;6310148;22;20107;-75
2022/04/09 05:00:24;;;;;;;14.32;2.88;;;5.50;99.90;;;;;;6309116;22;19957;-75
2022/04/09 05:02:53;;;;;;;9.73;1.60;;;5.60;99.90;;;;;;6337630;22;20031;-76
2022/04/09 05:05:21;;;;;;;14.07;2.47;;;5.60;99.90;;;;;;6309451;22;20018;-75
2022/04/09 05:08:03;;;;;;;11.02;2.35;;;5.70;99.90;;;;;;6284459;22;20057;-75
2022/04/09 05:10:29;;;;;;;12.80;1.67;;;5.60;99.90;;;;;;6258025;22;20022;-76
2022/04/09 05:12:58;;;;;;;7.20;0.93;;;5.50;99.90;;;;;;6337472;22;20346;-75
2022/04/09 05:15:24;;;;;;;12.07;1.58;;;5.30;99.90;;;;;;6336191;22;20030;-75
2022/04/09 05:17:49;;;;;;;14.27;3.88;;;5.20;99.90;;;;;;6283385;22;20026;-72
2022/04/09 05:20:16;;;;;;;13.50;1.52;;;5.00;99.90;;;;;;6309877;22;20097;-73
2022/04/09 05:22:46;;;;;;;7.72;1.20;;;4.90;99.90;;;;;;6309391;22;20026;-73
2022/04/09 05:25:14;;;;;;;7.68;1.00;;;4.90;99.90;;;;;;6337386;22;20027;-74
2022/04/09 05:27:43;;;;;;;12.43;1.63;;;4.90;99.90;;;;;;6309272;22;20030;-74
2022/04/09 05:30:12;;;;;;;10.85;1.98;;;4.90;99.90;;;;;;6259945;22;20015;-74
2022/04/09 05:32:43;;;;;;;15.18;2.05;;;4.90;99.90;;;;;;6283463;22;20097;-74
2022/04/09 05:35:13;;;;;;;17.42;2.40;;;5.00;99.90;;;;;;6284061;22;20018;-75
2022/04/09 05:37:46;;;;;;;14.90;2.90;;;5.20;99.90;;;;;;6283545;22;20041;-75
2022/04/09 05:40:13;;;;;;;15.35;2.55;;;5.50;99.90;;;;;;6361901;22;20023;-75
2022/04/09 05:42:42;;;;;;;12.52;2.38;;;5.60;99.90;;;;;;6310687;22;20027;-75
2022/04/09 05:45:10;;;;;;;17.13;2.33;;;5.70;99.90;;;;;;6338039;22;20342;-74
2022/04/09 05:47:46;;;;;;;19.85;3.03;;;5.70;99.90;;;;;;6309858;22;20022;-75
2022/04/09 05:50:14;;;;;;;19.00;3.80;;;5.70;99.90;;;;;;6308812;22;20056;-75
2022/04/09 05:52:41;;;;;;;16.80;1.98;;;5.80;99.90;;;;;;6283762;22;20102;-74
2022/04/09 05:55:11;;;;;;;15.40;2.30;;;5.70;99.90;;;;;;6259339;22;20022;-74
2022/04/09 05:57:42;;;;;;;15.18;2.70;;;5.70;99.90;;;;;;6284018;22;20018;-76
2022/04/09 06:00:10;;;;;;;16.55;2.90;;;5.60;99.90;;;;;;6361859;22;20026;-76
2022/04/09 06:02:39;;;;;;;17.75;3.30;;;5.70;99.90;;;;;;6283611;22;20132;-76
2022/04/09 06:05:18;;;;;;;14.50;2.95;;;5.80;99.90;;;;;;6310182;22;20050;-76
2022/04/09 06:07:44;;;;;;;17.00;2.55;;;5.80;99.90;;;;;;6309326;22;20550;-75
2022/04/09 06:10:13;;;;;;;13.52;2.30;;;6.00;99.90;;;;;;6309255;22;20015;-76
2022/04/09 06:12:40;;;;;;;14.05;2.70;;;6.00;99.90;;;;;;6284235;22;20026;-77
2022/04/09 06:15:07;;;;;;;19.92;3.70;;;6.10;99.90;;;;;;6335334;22;20022;-75
2022/04/09 06:17:36;;;;;;;14.25;2.17;;;6.10;99.90;;;;;;6336899;22;20060;-75
2022/04/09 06:20:06;;;;;;;11.90;3.10;;;6.10;99.90;;;;;;6337314;22;20025;-75
2022/04/09 06:22:33;;;;;;;13.07;2.30;;;6.00;99.90;;;;;;6309288;22;20101;-75
2022/04/09 06:24:59;;;;;;;18.58;2.42;;;6.00;99.90;;;;;;6309539;22;20054;-76
2022/04/09 06:27:26;;;;;;;14.23;1.92;;;5.90;99.90;;;;;;6283103;22;20023;-76
2022/04/09 06:29:52;;;;;;;24.80;2.78;;;5.90;99.90;;;;;;6308922;22;20055;-76
2022/04/09 06:32:17;;;;;;;14.88;3.17;;;5.90;99.90;;;;;;6308409;22;20034;-75
2022/04/09 06:34:43;;;;;;;14.10;2.45;;;6.10;99.90;;;;;;6281423;22;20014;-75
2022/04/09 06:37:09;;;;;;;17.75;5.15;;;6.20;99.90;;;;;;6307745;22;20019;-76
2022/04/09 06:39:35;;;;;;;20.60;3.67;;;6.30;99.90;;;;;;6283134;22;20343;-77
2022/04/09 06:42:01;;;;;;;19.73;4.35;;;6.30;99.90;;;;;;6308378;22;20026;-76
2022/04/09 06:44:27;;;;;;;15.38;2.95;;;6.30;99.90;;;;;;6309080;22;20095;-75
2022/04/09 06:46:54;;;;;;;12.52;2.95;;;6.30;99.90;;;;;;6282885;22;20018;-76
2022/04/09 06:49:23;;;;;;;15.52;2.42;;;6.40;99.90;;;;;;6336848;22;20346;-76
2022/04/09 06:51:51;;;;;;;17.52;3.17;;;6.40;99.90;;;;;;6308289;22;20019;-75
2022/04/09 06:54:21;;;;;;;8.90;2.13;;;6.50;99.90;;;;;;6308827;22;20025;-76
2022/04/09 06:56:48;;;;;;;19.25;3.45;;;6.80;99.90;;;;;;6309424;22;20390;-76
2022/04/09 06:59:36;;;;;;;9.48;1.98;;;7.00;99.90;;;;;;6254968;22;20080;-75
2022/04/09 07:02:06;;;;;;;11.13;1.50;;;7.20;99.90;;;;;;6276388;22;20046;-76
2022/04/09 07:04:33;;;;;;;10.18;1.88;;;7.40;99.90;;;;;;6250859;22;20100;-78
2022/04/09 07:07:01;;;;;;;10.65;1.90;;;7.50;99.90;;;;;;6224848;22;20102;-75
2022/04/09 07:09:27;;;;;;;14.15;2.20;;;7.60;99.90;;;;;;6275767;22;20107;-74
2022/04/09 07:11:53;;;;;;;16.02;2.63;;;7.70;99.90;;;;;;6250430;22;20495;-77
2022/04/09 07:14:19;;;;;;;22.23;2.72;;;7.80;99.90;;;;;;6275957;22;20024;-75
2022/04/09 07:16:45;;;;;;;26.77;5.68;;;7.90;99.90;;;;;;6249918;22;20481;-77
2022/04/09 07:19:11;;;;;;;18.70;2.97;;;7.90;99.90;;;;;;6250307;22;20073;-78
2022/04/09 07:21:37;;;;;;;16.95;3.15;;;7.90;99.90;;;;;;6276163;22;20055;-77
2022/04/09 07:24:05;;;;;;;13.32;2.72;;;8.00;99.90;;;;;;6275961;22;20019;-75
2022/04/09 07:26:31;;;;;;;11.90;2.13;;;8.00;99.90;;;;;;6250507;22;20347;-76
2022/04/09 07:28:57;;;;;;;13.02;2.25;;;8.10;99.90;;;;;;6301886;22;20354;-77
2022/04/09 07:31:23;;;;;;;15.32;3.63;;;8.10;99.90;;;;;;6278070;22;20019;-76
2022/04/09 07:33:49;;;;;;;18.85;2.83;;;8.20;99.90;;;;;;6252578;22;20023;-76
2022/04/09 07:36:15;;;;;;;17.20;3.20;;;8.00;99.90;;;;;;6252411;22;20055;-77
2022/04/09 07:38:41;;;;;;;18.75;3.60;;;7.80;99.90;;;;;;6277881;22;20027;-77
2022/04/09 07:41:06;;;;;;;15.13;2.90;;;7.70;99.90;;;;;;6277920;22;20058;-77
2022/04/09 07:43:32;;;;;;;18.45;4.07;;;7.60;99.90;;;;;;6278013;22;20112;-77
2022/04/09 07:46:08;;;;;;;21.25;3.13;;;7.50;99.90;;;;;;6277948;22;20030;-76
2022/04/09 07:48:37;;;;;;;16.52;2.08;;;7.70;99.90;;;;;;6303041;22;20026;-76
2022/04/09 07:51:11;;;;;;;17.27;2.63;;;7.80;99.90;;;;;;6306079;22;20019;-76
2022/04/09 07:53:38;;;;;;;15.07;3.03;;;7.70;99.90;;;;;;6311735;22;20486;-75
2022/04/09 07:56:04;;;;;;;13.57;2.50;;;7.60;99.90;;;;;;6311505;22;20022;-77
2022/04/09 07:58:37;;;;;;;19.77;2.63;;;7.80;99.90;;;;;;6339232;22;20019;-76
2022/04/09 08:01:03;;;;;;;15.18;2.55;;;8.00;99.90;;;;;;6259115;22;20458;-76
2022/04/09 08:03:50;;;;;;;18.05;2.78;;;8.20;99.90;;;;;;6284183;22;20023;-77
2022/04/09 08:06:20;;;;;;;17.60;2.83;;;8.30;99.90;;;;;;6298385;22;20519;-76
2022/04/09 08:08:46;;;;;;;17.90;2.95;;;8.50;99.90;;;;;;6246996;22;20105;-77
2022/04/09 08:11:19;;;;;;;12.30;3.30;;;8.60;99.90;;;;;;6247062;22;20028;-77
2022/04/09 08:13:45;;;;;;;18.85;2.35;;;8.80;99.90;;;;;;6247066;22;20015;-77
2022/04/09 08:16:11;;;;;;;11.65;2.58;;;8.90;99.90;;;;;;6246844;22;20027;-76
2022/04/09 08:18:39;;;;;;;15.38;3.63;;;9.10;99.90;;;;;;6221682;22;20035;-78
2022/04/09 08:21:09;;;;;;;9.45;2.20;;;9.00;99.90;;;;;;6246678;22;20130;-76
2022/04/09 08:23:34;;;;;;;12.32;3.50;;;9.20;99.90;;;;;;6272816;22;20471;-77
2022/04/09 08:26:01;;;;;;;13.35;2.42;;;9.20;99.90;;;;;;6272731;22;20105;-78
2022/04/09 08:28:30;;;;;;;10.57;2.10;;;8.80;99.90;;;;;;6222079;22;20023;-77
2022/04/09 08:30:56;;;;;;;15.70;2.38;;;8.00;99.90;;;;;;6246716;22;20107;-77
2022/04/09 08:33:22;;;;;;;13.38;2.10;;;7.70;99.90;;;;;;6246381;22;20030;-76
2022/04/09 08:36:02;;;;;;;5.40;1.70;;;7.40;99.90;;;;;;6222558;22;20426;-76
2022/04/09 08:38:30;;;;;;;3.83;0.55;;;7.10;99.90;;;;;;6272291;22;20055;-77
2022/04/09 08:41:03;;;;;;;6.10;0.65;;;7.00;99.90;;;;;;6246544;22;20035;-76
2022/04/09 08:43:30;;;;;;;4.38;0.68;;;6.90;99.90;;;;;;6196692;22;20059;-76
2022/04/09 08:46:00;;;;;;;4.55;0.80;;;7.10;99.90;;;;;;6246736;22;20024;-76
2022/04/09 08:48:29;;;;;;;6.20;1.67;;;7.40;99.90;;;;;;6246543;22;20023;-76
2022/04/09 08:51:00;;;;;;;8.63;1.13;;;7.80;99.90;;;;;;6163068;23;20360;-76
2022/04/09 08:53:26;;;;;;;5.40;1.67;;;8.10;99.90;;;;;;6161327;23;20023;-76
2022/04/09 08:55:54;;;;;;;18.52;2.42;;;8.30;99.90;;;;;;6222015;23;20047;-77
2022/04/09 08:58:20;;;;;;;10.15;1.60;;;8.50;99.90;;;;;;6216241;23;20016;-77
2022/04/09 09:00:49;;;;;;;15.32;2.47;;;8.80;99.90;;;;;;6192965;23;20032;-76
2022/04/09 09:03:27;;;;;;;9.05;2.50;;;9.10;99.90;;;;;;6242288;23;20034;-77
2022/04/09 09:05:55;;;;;;;15.52;2.08;;;9.30;99.90;;;;;;6191026;23;20021;-75
2022/04/09 09:08:39;;;;;;;19.80;2.25;;;9.60;99.90;;;;;;6166902;23;20035;-76
2022/04/09 09:11:05;;;;;;;11.63;2.28;;;9.80;99.90;;;;;;6241795;23;20054;-78
2022/04/09 09:13:48;;;;;;;16.42;3.70;;;9.80;99.90;;;;;;6216111;23;20024;-77
2022/04/09 09:16:33;;;;;;;11.40;2.70;;;9.50;99.90;;;;;;6190528;22;20024;-77
2022/04/09 09:19:03;;;;;;;9.75;2.58;;;8.70;99.90;;;;;;6216238;23;20024;-77
2022/04/09 09:21:30;;;;;;;9.07;1.75;;;8.20;99.90;;;;;;6231682;22;20073;-76
2022/04/09 09:24:20;;;;;;;6.70;1.05;;;7.90;99.90;;;;;;6274690;22;20031;-75
2022/04/09 09:26:55;;;;;;;4.03;1.00;;;7.60;99.90;;;;;;6273304;22;20020;-76
2022/04/09 09:29:39;;;;;;;4.65;0.82;;;7.20;99.90;;;;;;6219804;23;20024;-77
2022/04/09 09:32:12;;;;;;;0.93;0.35;;;7.00;99.90;;;;;;6241975;23;20074;-76
2022/04/09 09:34:38;;;;;;;3.15;0.40;;;6.70;99.90;;;;;;6191810;23;20024;-75
2022/04/09 09:37:03;;;;;;;6.72;0.50;;;6.60;99.90;;;;;;6241149;22;20111;-75
2022/04/09 09:39:33;;;;;;;2.83;0.40;;;6.60;99.90;;;;;;6241305;23;20024;-76
2022/04/09 09:42:04;;;;;;;6.85;0.70;;;6.70;99.90;;;;;;6241007;23;20024;-76
2022/04/09 09:44:31;;;;;;;7.50;2.38;;;6.70;99.90;;;;;;6241103;23;20035;-77
2022/04/09 09:47:07;;;;;;;3.53;0.73;;;6.80;99.90;;;;;;6241061;23;20031;-75
2022/04/09 09:49:38;;;;;;;4.78;1.17;;;6.70;99.90;;;;;;6215146;23;20383;-78
2022/04/09 09:52:09;;;;;;;8.55;1.27;;;6.90;99.90;;;;;;6240808;23;20050;-76
2022/04/09 09:55:14;;;;;;;10.75;0.88;;;7.10;99.90;;;;;;6215153;23;20038;-77
2022/04/09 09:57:41;;;;;;;7.97;0.90;;;7.50;99.90;;;;;;6241030;23;20464;-76
2022/04/09 10:00:14;;;;;;;5.22;2.00;;;7.80;99.90;;;;;;6250775;22;20031;-75
2022/04/09 10:02:41;;;;;;;10.05;0.85;;;7.90;99.90;;;;;;6274795;22;20024;-75
2022/04/09 10:05:09;;;;;;;3.60;1.23;;;8.10;99.90;;;;;;6273125;22;20392;-77
2022/04/09 10:07:36;;;;;;;6.10;1.27;;;8.50;99.90;;;;;;6247506;22;20390;-76
2022/04/09 10:10:04;;;;;;;4.57;0.65;;;8.80;99.90;;;;;;6272068;22;20028;-75
2022/04/09 10:12:38;;;;;;;7.38;1.10;;;8.80;99.90;;;;;;6273328;22;20027;-76
2022/04/09 10:15:04;;;;;;;8.80;1.27;;;8.50;99.90;;;;;;6273662;22;20098;-76
2022/04/09 10:17:31;;;;;;;5.53;0.95;;;8.20;99.90;;;;;;6307917;22;20468;-75
2022/04/09 10:20:01;;;;;;;5.38;0.88;;;8.20;99.90;;;;;;6308922;22;20018;-75
2022/04/09 10:22:49;;;;;;;6.18;1.05;;;8.20;99.90;;;;;;6308147;22;20022;-75
2022/04/09 10:25:18;;;;;;;9.15;1.30;;;8.60;99.90;;;;;;6287349;22;20021;-78
2022/04/09 10:27:49;;;;;;;8.10;1.38;;;8.60;99.90;;;;;;6282926;22;20018;-77
2022/04/09 10:30:22;;;;;;;9.38;1.55;;;8.90;99.90;;;;;;6336778;22;20061;-77
2022/04/09 10:32:52;;;;;;;12.35;1.20;;;9.20;99.90;;;;;;6308400;22;20022;-76
2022/04/09 10:35:22;;;;;;;15.63;2.13;;;9.40;99.90;;;;;;6308416;22;20023;-76
2022/04/09 10:38:06;;;;;;;11.70;1.85;;;9.60;99.90;;;;;;6308167;22;20022;-77
2022/04/09 10:40:33;;;;;;;14.88;2.95;;;9.80;99.90;;;;;;6308859;22;20031;-76
2022/04/09 10:42:59;;;;;;;17.88;3.63;;;10.00;99.90;;;;;;6336788;22;20022;-78
2022/04/09 10:45:25;;;;;;;10.15;2.03;;;10.10;99.90;;;;;;6335136;22;20083;-77
2022/04/09 10:48:10;;;;;;;10.75;2.05;;;10.30;99.90;;;;;;6309210;22;20031;-77
2022/04/09 10:50:53;;;;;;;11.75;1.73;;;10.40;99.90;;;;;;6309275;22;20335;-77
2022/04/09 10:53:22;;;;;;;13.88;2.17;;;10.70;99.90;;;;;;6282438;22;20015;-77
2022/04/09 10:56:24;;;;;;;15.77;3.33;;;10.40;99.90;;;;;;6308053;22;20454;-76
2022/04/09 10:59:28;;;;;;;14.32;1.95;;;10.40;99.90;;;;;;6308768;22;20030;-76
2022/04/09 11:01:54;;;;;;;9.38;1.55;;;10.10;99.90;;;;;;6307809;22;20019;-76
2022/04/09 11:04:29;;;;;;;10.30;2.40;;;9.90;99.90;;;;;;6307955;22;20034;-76
2022/04/09 11:07:17;;;;;;;11.40;1.73;;;10.20;99.90;;;;;;6308571;22;20088;-76
2022/04/09 11:09:43;;;;;;;14.50;2.30;;;10.40;99.90;;;;;;6336382;22;20048;-75
2022/04/09 11:12:10;;;;;;;9.90;1.83;;;10.90;99.90;;;;;;6336743;22;20018;-77
2022/04/09 11:14:59;;;;;;;8.57;1.52;;;11.00;99.90;;;;;;6308345;22;20063;-76
2022/04/09 11:17:33;;;;;;;7.20;1.63;;;10.90;99.90;;;;;;6307969;22;20023;-79
2022/04/09 11:20:11;;;;;;;11.18;3.15;;;10.90;99.90;;;;;;6308379;22;20023;-77
2022/04/09 11:22:42;;;;;;;13.40;1.85;;;10.60;99.90;;;;;;6308573;22;20061;-77
2022/04/09 11:25:29;;;;;;;10.98;1.75;;;10.70;99.90;;;;;;6308686;22;20026;-75
2022/04/09 11:28:13;;;;;;;9.95;1.40;;;11.10;99.90;;;;;;6308555;22;20023;-77
2022/04/09 11:31:02;;;;;;;6.25;1.20;;;11.20;99.90;;;;;;6309431;22;20019;-76
2022/04/09 11:33:31;;;;;;;7.35;1.83;;;11.40;99.90;;;;;;6309093;22;20038;-77
2022/04/09 11:35:59;;;;;;;9.27;1.50;;;11.30;99.90;;;;;;6283460;22;20026;-76
2022/04/09 11:38:27;;;;;;;7.68;1.70;;;11.50;99.90;;;;;;6336950;22;20023;-77
2022/04/09 11:40:54;;;;;;;6.82;1.10;;;11.40;99.90;;;;;;6308768;22;20073;-76
2022/04/09 11:43:23;;;;;;;6.82;0.95;;;11.30;99.90;;;;;;6282911;22;20328;-78
2022/04/09 11:45:50;;;;;;;6.38;1.00;;;11.50;99.90;;;;;;6257372;22;20365;-78
2022/04/09 11:48:18;;;;;;;8.27;1.55;;;11.50;99.90;;;;;;6308891;22;20195;-77
2022/04/09 11:50:53;;;;;;;9.43;1.48;;;11.70;99.90;;;;;;6284697;22;20026;-78
2022/04/09 11:53:21;;;;;;;6.53;1.20;;;11.80;99.90;;;;;;6282133;22;20050;-77
2022/04/09 11:55:48;;;;;;;8.38;1.00;;;11.80;99.90;;;;;;6336438;22;20030;-79
2022/04/09 11:58:18;;;;;;;6.75;1.50;;;11.70;99.90;;;;;;6334524;22;20029;-77
2022/04/09 12:00:46;;;;;;;8.02;1.80;;;11.90;99.90;;;;;;6309531;22;20026;-78
2022/04/09 12:03:14;;;;;;;8.30;1.40;;;12.10;99.90;;;;;;6308616;22;20026;-77
2022/04/09 12:05:48;;;;;;;7.25;1.60;;;12.10;99.90;;;;;;6281913;22;20473;-78
2022/04/09 12:08:25;;;;;;;7.13;1.35;;;11.90;99.90;;;;;;6308527;22;20026;-77
2022/04/09 12:11:12;;;;;;;16.60;1.92;;;12.10;99.90;;;;;;6255812;22;20019;-77
2022/04/09 12:13:39;;;;;;;7.68;1.38;;;12.50;99.90;;;;;;6277427;22;20019;-77
2022/04/09 12:16:10;;;;;;;14.73;1.92;;;12.50;99.70;;;;;;6268491;22;20105;-77
2022/04/09 12:18:40;;;;;;;7.38;1.58;;;12.60;99.90;;;;;;6221648;22;20734;-78
2022/04/09 12:21:22;;;;;;;12.00;1.48;;;12.80;99.10;;;;;;6246890;22;20058;-76
2022/04/09 12:24:06;;;;;;;4.72;1.55;;;12.40;99.00;;;;;;6245920;22;20046;-77
2022/04/09 12:26:57;;;;;;;6.13;1.42;;;12.40;99.20;;;;;;6253286;22;20528;-76
2022/04/09 12:29:24;;;;;;;10.15;1.35;;;12.40;99.60;;;;;;6221987;22;20371;-77
2022/04/09 12:32:16;;;;;;;9.25;1.60;;;12.60;99.90;;;;;;6247397;22;20534;-77
2022/04/09 12:34:57;;;;;;;12.25;1.40;;;12.40;98.90;;;;;;6247324;22;20026;-77
2022/04/09 12:37:30;;;;;;;8.23;1.73;;;12.70;98.40;;;;;;6197244;22;20078;-75
2022/04/09 12:40:12;;;;;;;9.00;2.13;;;12.90;99.20;;;;;;6247116;22;20023;-77
2022/04/09 12:42:38;;;;;;;12.70;2.28;;;12.90;98.60;;;;;;6263805;22;20024;-77
2022/04/09 12:45:16;;;;;;;15.20;2.35;;;12.70;98.20;;;;;;6273798;22;20016;-77
2022/04/09 12:47:52;;;;;;;7.63;1.80;;;12.10;99.00;;;;;;6273767;22;20152;-77
2022/04/09 12:50:27;;;;;;;9.20;2.08;;;12.20;99.90;;;;;;6248549;22;20351;-77
2022/04/09 12:53:04;;;;;;;9.32;2.30;;;12.50;99.90;;;;;;6275605;22;20027;-75
2022/04/09 12:55:31;;;;;;;8.95;1.95;;;12.90;99.30;;;;;;6247918;22;20158;-76
2022/04/09 12:57:57;;;;;;;9.35;1.60;;;13.50;97.80;;;;;;6274397;22;20095;-75
2022/04/09 13:00:25;;;;;;;6.40;1.48;;;13.80;95.70;;;;;;6275460;22;20402;-78
2022/04/09 13:02:52;;;;;;;8.43;1.30;;;13.90;94.80;;;;;;6273212;22;20429;-76
2022/04/09 13:05:21;;;;;;;7.75;1.42;;;14.10;93.50;;;;;;6273219;22;20094;-78
2022/04/09 13:07:47;;;;;;;4.20;0.80;;;14.30;92.60;;;;;;6247615;22;20352;-76